createdAt,value
2023-05-20T00:00:33.503Z,101153.60
2023-05-20T00:03:26.214Z,101152.80
2023-05-20T00:06:02.135Z,101148.20
2023-05-20T00:08:40.863Z,101146.60
2023-05-20T00:11:16.015Z,101147.80
2023-05-20T00:13:52.725Z,101145.00
2023-05-20T00:16:26.544Z,101141.60
2023-05-20T00:19:03.581Z,101146.00
2023-05-20T00:21:37.508Z,101145.80
2023-05-20T00:24:11.453Z,101145.40
2023-05-20T00:26:45.849Z,101152.80
2023-05-20T00:29:19.866Z,101153.60
2023-05-20T00:31:53.717Z,101149.40
2023-05-20T00:34:27.862Z,101156.00
2023-05-20T00:37:01.915Z,101150.40
2023-05-20T00:39:40.906Z,101152.00
2023-05-20T00:42:20.667Z,101152.20
2023-05-20T00:44:55.945Z,101149.20
2023-05-20T00:47:35.322Z,101145.20
2023-05-20T00:50:12.722Z,101145.40
2023-05-20T00:52:48.460Z,101146.40
2023-05-20T00:55:22.873Z,101144.80
2023-05-20T00:58:00.164Z,101145.20
2023-05-20T01:00:35.303Z,101143.00
2023-05-20T01:03:11.112Z,101142.20
2023-05-20T01:05:47.158Z,101137.20
2023-05-20T01:08:21.078Z,101141.80
2023-05-20T01:11:07.227Z,101141.40
2023-05-20T01:13:48.385Z,101141.00
2023-05-20T01:16:26.277Z,101139.80
2023-05-20T01:19:02.656Z,101138.40
2023-05-20T01:21:44.692Z,101137.20
2023-05-20T01:24:18.361Z,101140.40
2023-05-20T01:26:52.127Z,101137.40
2023-05-20T01:29:26.625Z,101129.60
2023-05-20T01:32:11.177Z,101133.20
2023-05-20T01:34:50.214Z,101137.60
2023-05-20T01:37:29.041Z,101133.80
2023-05-20T01:40:05.327Z,101133.40
2023-05-20T01:42:43.210Z,101139.60
2023-05-20T01:45:26.500Z,101143.60
2023-05-20T01:48:02.190Z,101140.40
2023-05-20T01:50:36.119Z,101138.00
2023-05-20T01:53:10.473Z,101135.40
2023-05-20T01:55:44.281Z,101137.00
2023-05-20T01:58:18.970Z,101135.40
2023-05-20T02:00:53.191Z,101134.80
2023-05-20T02:03:27.056Z,101136.80
2023-05-20T02:06:04.735Z,101134.60
2023-05-20T02:08:39.093Z,101136.60
2023-05-20T02:11:13.393Z,101137.20
2023-05-20T02:13:47.304Z,101133.60
2023-05-20T02:16:21.502Z,101135.80
2023-05-20T02:18:55.524Z,101142.20
2023-05-20T02:21:31.464Z,101137.60
2023-05-20T02:24:05.641Z,101138.00
2023-05-20T02:26:39.648Z,101142.40
2023-05-20T02:29:15.420Z,101144.60
2023-05-20T02:31:50.299Z,101145.60
2023-05-20T02:34:26.834Z,101144.60
2023-05-20T02:37:01.258Z,101145.20
2023-05-20T02:39:36.370Z,101139.20
2023-05-20T02:42:10.349Z,101137.20
2023-05-20T02:44:45.105Z,101137.80
2023-05-20T02:47:21.342Z,101139.60
2023-05-20T02:49:55.520Z,101142.20
2023-05-20T02:52:31.456Z,101143.20
2023-05-20T02:55:10.903Z,101139.20
2023-05-20T02:57:45.330Z,101131.80
2023-05-20T03:00:19.688Z,101127.60
2023-05-20T03:02:53.693Z,101129.20
2023-05-20T03:05:28.227Z,101128.20
2023-05-20T03:08:03.867Z,101127.00
2023-05-20T03:10:40.862Z,101129.20
2023-05-20T03:13:16.032Z,101131.20
2023-05-20T03:15:53.028Z,101133.00
2023-05-20T03:18:30.361Z,101131.40
2023-05-20T03:21:04.646Z,101129.80
2023-05-20T03:23:39.547Z,101122.80
2023-05-20T03:26:17.572Z,101118.20
2023-05-20T03:28:52.779Z,101125.00
2023-05-20T03:31:27.568Z,101122.60
2023-05-20T03:34:01.886Z,101127.60
2023-05-20T03:36:35.874Z,101130.40
2023-05-20T03:39:12.458Z,101133.20
2023-05-20T03:41:46.932Z,101131.60
2023-05-20T03:44:20.907Z,101133.20
2023-05-20T03:46:54.865Z,101140.40
2023-05-20T03:49:29.247Z,101140.40
2023-05-20T03:52:04.262Z,101136.60
2023-05-20T03:54:38.232Z,101142.40
2023-05-20T03:57:13.321Z,101145.60
2023-05-20T04:02:38.960Z,101144.60
2023-05-20T04:05:14.432Z,101148.40
2023-05-20T04:07:50.763Z,101146.20
2023-05-20T04:10:32.341Z,101149.00
2023-05-20T04:13:13.261Z,101146.20
2023-05-20T04:15:53.408Z,101144.80
2023-05-20T04:18:37.153Z,101153.00
2023-05-20T04:21:13.455Z,101160.60
2023-05-20T04:23:52.679Z,101159.40
2023-05-20T04:26:26.601Z,101161.40
2023-05-20T04:29:02.063Z,101161.80
2023-05-20T04:32:15.508Z,101157.60
2023-05-20T04:35:09.524Z,101163.40
2023-05-20T04:38:01.349Z,101159.80
2023-05-20T04:40:42.752Z,101153.40
2023-05-20T04:47:08.148Z,101148.60
2023-05-20T04:49:46.695Z,101152.00
2023-05-20T04:52:21.113Z,101153.60
2023-05-20T04:55:00.537Z,101150.20
2023-05-20T04:57:42.369Z,101154.60
2023-05-20T05:00:18.190Z,101157.00
2023-05-20T05:02:52.252Z,101150.60
2023-05-20T05:05:37.015Z,101149.40
2023-05-20T05:08:12.234Z,101147.00
2023-05-20T05:10:51.334Z,101145.00
2023-05-20T05:16:42.040Z,101138.60
2023-05-20T05:19:18.343Z,101139.60
2023-05-20T05:21:55.618Z,101134.60
2023-05-20T05:24:30.328Z,101135.60
2023-05-20T05:27:04.232Z,101131.60
2023-05-20T05:29:40.382Z,101134.00
2023-05-20T05:32:14.314Z,101138.20
2023-05-20T05:34:48.123Z,101149.80
2023-05-20T05:37:22.073Z,101153.60
2023-05-20T05:39:56.166Z,101160.20
2023-05-20T05:42:30.835Z,101156.00
2023-05-20T05:45:06.926Z,101156.80
2023-05-20T05:47:40.758Z,101160.40
2023-05-20T05:50:15.076Z,101158.40
2023-05-20T05:52:49.636Z,101159.80
2023-05-20T05:55:24.218Z,101152.00
2023-05-20T05:57:57.820Z,101152.40
2023-05-20T06:00:46.800Z,101159.40
2023-05-20T06:03:20.783Z,101153.60
2023-05-20T06:05:55.464Z,101157.20
2023-05-20T06:08:29.201Z,101159.60
2023-05-20T06:11:02.771Z,101156.00
2023-05-20T06:13:38.237Z,101156.20
2023-05-20T06:16:12.178Z,101160.60
2023-05-20T06:18:47.115Z,101166.40
2023-05-20T06:22:04.349Z,101166.20
2023-05-20T06:24:39.329Z,101166.40
2023-05-20T06:27:13.282Z,101164.80
2023-05-20T06:29:49.694Z,101165.00
2023-05-20T06:32:23.682Z,101165.00
2023-05-20T06:34:59.253Z,101161.80
2023-05-20T06:37:33.055Z,101157.80
2023-05-20T06:40:08.843Z,101156.00
2023-05-20T06:42:45.042Z,101163.60
2023-05-20T06:45:23.885Z,101155.20
2023-05-20T06:48:02.083Z,101158.60
2023-05-20T06:50:39.382Z,101162.80
2023-05-20T06:53:16.238Z,101169.80
2023-05-20T06:55:50.903Z,101171.20
2023-05-20T06:58:25.091Z,101173.00
2023-05-20T07:01:04.758Z,101169.00
2023-05-20T07:06:35.108Z,101166.00
2023-05-20T07:09:08.905Z,101164.00
2023-05-20T07:12:08.892Z,101163.80
2023-05-20T07:14:49.932Z,101162.40
2023-05-20T08:00:06.762Z,101144.80
2023-05-20T08:02:50.862Z,101146.40
2023-05-20T08:05:29.708Z,101139.80
2023-05-20T08:08:05.560Z,101136.20
2023-05-20T08:10:48.231Z,101133.20
2023-05-20T08:13:22.194Z,101134.20
2023-05-20T08:15:57.429Z,101132.20
2023-05-20T08:18:32.961Z,101130.20
2023-05-20T08:21:09.261Z,101124.20
2023-05-20T08:23:43.062Z,101118.60
2023-05-20T08:26:16.643Z,101113.00
2023-05-20T08:28:50.617Z,101112.80
2023-05-20T08:31:25.346Z,101110.60
2023-05-20T08:33:59.693Z,101106.40
2023-05-20T08:36:33.271Z,101107.40
2023-05-20T08:39:07.504Z,101101.60
2023-05-20T08:41:42.663Z,101098.40
2023-05-20T08:44:18.032Z,101094.80
2023-05-20T08:46:53.210Z,101086.40
2023-05-20T08:49:27.691Z,101092.20
2023-05-20T08:52:03.123Z,101078.60
2023-05-20T08:54:49.817Z,101090.60
2023-05-20T08:57:24.651Z,101091.80
2023-05-20T09:00:13.783Z,101091.20
2023-05-20T09:03:12.690Z,101092.80
2023-05-20T09:05:50.587Z,101095.40
2023-05-20T09:09:29.649Z,101090.00
2023-05-20T09:12:06.056Z,101093.20
2023-05-20T09:14:42.986Z,101091.20
2023-05-20T09:17:20.020Z,101090.60
2023-05-20T09:19:57.782Z,101094.00
2023-05-20T09:22:35.077Z,101098.20
2023-05-20T09:25:12.653Z,101101.00
2023-05-20T09:27:49.815Z,101096.20
2023-05-20T09:30:26.183Z,101105.00
2023-05-20T09:33:01.473Z,101098.00
2023-05-20T09:35:39.170Z,101098.40
2023-05-20T09:38:15.703Z,101092.20
2023-05-20T09:40:53.202Z,101087.20
2023-05-20T09:43:29.155Z,101083.20
2023-05-20T09:46:03.384Z,101078.60
2023-05-20T09:48:38.962Z,101071.00
2023-05-20T09:51:14.025Z,101064.80
2023-05-20T09:53:48.409Z,101070.20
2023-05-20T09:56:38.703Z,101065.40
2023-05-20T09:59:15.811Z,101068.60
2023-05-20T10:01:50.290Z,101073.00
2023-05-20T10:04:38.749Z,101070.00
2023-05-20T10:08:03.211Z,101070.60
2023-05-20T10:10:53.082Z,101067.20
2023-05-20T10:13:55.206Z,101063.40
2023-05-20T10:16:45.380Z,101059.00
2023-05-20T10:19:32.846Z,101064.00
2023-05-20T10:22:09.761Z,101069.20
2023-05-20T10:24:59.167Z,101074.40
2023-05-20T10:27:43.506Z,101076.60
2023-05-20T10:30:25.308Z,101077.20
2023-05-20T10:33:05.919Z,101076.80
2023-05-20T10:35:55.004Z,101071.60
2023-05-20T10:38:30.368Z,101064.20
2023-05-20T10:41:13.967Z,101063.00
2023-05-20T10:43:49.075Z,101057.40
2023-05-20T10:46:34.933Z,101046.40
2023-05-20T10:49:27.501Z,101041.00
2023-05-20T10:52:04.821Z,101043.20
2023-05-20T10:54:49.416Z,101044.20
2023-05-20T10:57:27.409Z,101052.60
2023-05-20T11:00:02.254Z,101041.20
2023-05-20T11:02:48.206Z,101035.00
2023-05-20T11:05:24.112Z,101038.20
2023-05-20T11:08:13.556Z,101035.00
2023-05-20T11:10:58.385Z,101029.00
2023-05-20T11:13:46.203Z,101035.00
2023-05-20T11:16:25.377Z,101035.40
2023-05-20T11:19:22.289Z,101037.40
2023-05-20T11:21:57.281Z,101028.40
2023-05-20T11:24:33.773Z,101020.80
2023-05-20T11:27:14.615Z,101019.00
2023-05-20T11:30:01.264Z,101012.20
2023-05-20T11:32:38.233Z,101009.40
2023-05-20T11:36:10.712Z,101006.00
2023-05-20T11:38:53.019Z,101006.60
2023-05-20T11:41:30.216Z,101015.40
2023-05-20T11:44:05.489Z,101015.40
2023-05-20T11:46:47.135Z,101014.80
2023-05-20T11:49:21.780Z,101019.40
2023-05-20T11:51:57.279Z,101018.40
2023-05-20T11:54:31.112Z,101020.60
2023-05-20T11:57:07.134Z,101028.40
2023-05-20T11:59:41.430Z,101026.60
2023-05-20T12:02:16.145Z,101030.60
2023-05-20T12:04:50.202Z,101030.40
2023-05-20T12:07:28.012Z,101027.20
2023-05-20T12:10:08.980Z,101026.20
2023-05-20T12:13:01.577Z,101020.00
2023-05-20T12:15:43.053Z,101020.40
2023-05-20T12:18:17.623Z,101019.20
2023-05-20T12:21:07.320Z,101017.80
2023-05-20T12:24:16.917Z,101015.40
2023-05-20T12:26:51.420Z,101010.20
2023-05-20T12:30:09.745Z,101016.60
2023-05-20T12:32:56.048Z,101009.80
2023-05-20T12:35:47.142Z,101005.20
2023-05-20T12:38:35.068Z,100998.40
2023-05-20T12:41:09.392Z,100994.80
2023-05-20T12:43:44.791Z,100986.20
2023-05-20T12:46:24.661Z,100981.20
2023-05-20T12:49:00.258Z,100980.40
2023-05-20T12:51:39.270Z,100980.00
2023-05-20T12:54:13.578Z,100981.00
2023-05-20T12:57:22.812Z,100977.20
2023-05-20T13:00:06.587Z,100971.20
2023-05-20T13:03:53.075Z,100972.60
2023-05-20T13:14:16.267Z,100967.40
2023-05-20T13:17:17.664Z,100961.60
2023-05-20T13:21:30.701Z,100960.20
2023-05-20T13:25:02.900Z,100952.80
2023-05-20T13:28:28.790Z,100962.00
2023-05-20T13:47:35.649Z,100941.80
2023-05-20T13:50:16.233Z,100946.60
2023-05-20T13:52:55.730Z,100931.40
2023-05-20T13:55:34.033Z,100935.20
2023-05-20T14:07:49.065Z,100930.40
2023-05-20T14:10:33.565Z,100892.40
2023-05-20T14:13:11.509Z,100892.40
2023-05-20T14:15:49.649Z,100895.40
2023-05-20T14:18:31.322Z,100891.20
2023-05-20T14:21:05.259Z,100888.40
2023-05-20T14:23:39.006Z,100911.40
2023-05-20T14:26:13.154Z,100890.80
2023-05-20T14:28:47.225Z,100906.60
2023-05-20T14:31:21.226Z,100885.80
2023-05-20T14:33:55.208Z,100872.00
2023-05-20T14:36:29.204Z,100862.00
2023-05-20T14:39:03.578Z,100861.40
2023-05-20T14:41:37.850Z,100856.40
2023-05-20T14:44:12.442Z,100858.20
2023-05-20T14:46:52.153Z,100850.40
2023-05-20T14:49:27.117Z,100849.60
2023-05-20T14:52:01.319Z,100846.80
2023-05-20T14:54:35.185Z,100846.20
2023-05-20T14:57:13.129Z,100877.00
2023-05-20T14:59:51.080Z,100850.40
2023-05-20T15:02:24.991Z,100854.40
2023-05-20T15:04:59.724Z,100865.20
2023-05-20T15:07:39.768Z,100868.40
2023-05-20T15:10:14.603Z,100860.80
2023-05-20T15:12:48.212Z,100855.20
2023-05-20T15:15:23.775Z,100844.80
2023-05-20T15:17:58.599Z,100829.80
2023-05-20T15:20:32.735Z,100816.40
2023-05-20T15:23:07.163Z,100808.00
2023-05-20T15:25:41.653Z,100808.00
2023-05-20T15:28:19.924Z,100799.00
2023-05-20T15:30:58.222Z,100796.60
2023-05-20T15:33:32.116Z,100793.40
2023-05-20T15:36:06.719Z,100790.80
2023-05-20T15:38:40.489Z,100792.00
2023-05-20T15:41:16.282Z,100782.20
2023-05-20T15:43:51.293Z,100782.00
2023-05-20T15:46:28.470Z,100788.20
2023-05-20T15:49:02.770Z,100779.20
2023-05-20T15:54:37.848Z,100781.40
2023-05-20T15:57:17.352Z,100782.20
2023-05-20T15:59:57.442Z,100773.60
2023-05-20T16:02:46.151Z,100765.60
2023-05-20T16:05:25.038Z,100771.60
2023-05-20T16:07:59.278Z,100790.20
2023-05-20T16:10:42.696Z,100782.40
2023-05-20T16:13:21.074Z,100784.40
2023-05-20T16:15:57.921Z,100776.80
2023-05-20T16:18:35.285Z,100773.80
2023-05-20T16:21:12.275Z,100772.60
2023-05-20T16:23:46.156Z,100778.80
2023-05-20T16:26:31.724Z,100786.40
2023-05-20T16:29:05.746Z,100777.00
2023-05-20T16:31:45.009Z,100786.20
2023-05-20T16:34:19.197Z,100775.00
2023-05-20T16:36:56.964Z,100778.20
2023-05-20T16:39:31.546Z,100780.20
2023-05-20T16:42:12.092Z,100778.20
2023-05-20T16:44:48.438Z,100778.00
2023-05-20T16:47:22.465Z,100777.20
2023-05-20T16:49:56.588Z,100772.20
2023-05-20T16:52:30.596Z,100769.40
2023-05-20T16:55:08.984Z,100773.20
2023-05-20T16:57:44.180Z,100775.80
2023-05-20T17:00:19.212Z,100774.60
2023-05-20T17:02:52.924Z,100764.00
2023-05-20T17:05:27.572Z,100777.40
2023-05-20T17:08:02.661Z,100784.80
2023-05-20T17:10:36.645Z,100784.00
2023-05-20T17:13:16.337Z,100785.40
2023-05-20T17:15:56.213Z,100787.80
2023-05-20T17:18:50.757Z,100787.40
2023-05-20T17:21:28.997Z,100785.80
2023-05-20T17:24:05.191Z,100781.20
2023-05-20T17:26:40.913Z,100784.20
2023-05-20T17:29:15.113Z,100782.60
2023-05-20T17:31:49.781Z,100780.80
2023-05-20T17:34:23.454Z,100780.40
2023-05-20T17:36:59.676Z,100776.60
2023-05-20T17:39:40.060Z,100776.20
2023-05-20T17:42:49.315Z,100780.60
2023-05-20T17:48:23.958Z,100779.80
2023-05-20T17:50:58.279Z,100773.40
2023-05-20T17:53:32.138Z,100773.60
2023-05-20T17:56:06.812Z,100779.20
2023-05-20T17:58:40.406Z,100772.20
2023-05-20T18:01:15.183Z,100767.60
2023-05-20T18:03:48.866Z,100768.40
2023-05-20T18:06:26.643Z,100767.40
2023-05-20T18:09:00.247Z,100761.80
2023-05-20T18:11:34.472Z,100762.80
2023-05-20T18:14:07.948Z,100761.40
2023-05-20T18:16:41.633Z,100765.00
2023-05-20T18:19:15.864Z,100766.20
2023-05-20T18:21:49.895Z,100762.20
2023-05-20T18:24:23.367Z,100760.00
2023-05-20T18:26:56.840Z,100760.80
2023-05-20T18:29:31.209Z,100762.80
2023-05-20T18:32:05.224Z,100761.00
2023-05-20T18:34:38.876Z,100759.00
2023-05-20T18:37:12.587Z,100756.40
2023-05-20T18:39:46.115Z,100757.40
2023-05-20T18:42:19.754Z,100758.00
2023-05-20T18:44:53.360Z,100751.20
2023-05-20T18:47:27.545Z,100750.20
2023-05-20T18:50:01.936Z,100747.20
2023-05-20T18:52:35.418Z,100750.80
2023-05-20T18:55:10.723Z,100745.40
2023-05-20T18:57:44.238Z,100744.20
2023-05-20T19:00:19.959Z,100744.20
2023-05-20T19:02:53.690Z,100739.60
2023-05-20T19:05:29.571Z,100741.40
2023-05-20T19:08:09.830Z,100746.20
2023-05-20T19:10:43.685Z,100743.00
2023-05-20T19:13:17.287Z,100742.20
2023-05-20T19:15:50.950Z,100738.00
2023-05-20T19:18:24.846Z,100732.80
2023-05-20T19:20:58.493Z,100734.40
2023-05-20T19:23:32.589Z,100731.40
2023-05-20T19:26:07.624Z,100734.80
2023-05-20T19:29:19.947Z,100732.00
2023-05-20T19:31:54.451Z,100737.00
2023-05-20T19:34:28.744Z,100734.80
2023-05-20T19:37:22.894Z,100733.60
2023-05-20T19:44:56.531Z,100745.20
2023-05-20T19:47:31.651Z,100744.60
2023-05-20T19:50:06.966Z,100749.80
2023-05-20T19:52:55.423Z,100748.60
2023-05-20T19:55:47.228Z,100747.20
2023-05-20T19:58:25.605Z,100749.80
2023-05-20T20:00:59.572Z,100748.00
2023-05-20T20:03:34.203Z,100744.80
2023-05-20T20:06:08.532Z,100741.20
2023-05-20T20:08:43.327Z,100747.60
2023-05-20T20:11:17.524Z,100746.20
2023-05-20T20:13:59.119Z,100742.20
2023-05-20T20:16:33.836Z,100748.00
2023-05-20T20:19:12.108Z,100746.80
2023-05-20T20:21:47.020Z,100747.80
2023-05-20T20:24:23.685Z,100753.40
2023-05-20T20:26:58.353Z,100752.80
2023-05-20T20:29:32.296Z,100752.40
2023-05-20T20:32:07.033Z,100757.40
2023-05-20T20:34:41.581Z,100759.60
2023-05-20T20:37:15.650Z,100761.60
2023-05-20T20:39:50.301Z,100761.20
2023-05-20T20:42:25.248Z,100766.40
2023-05-20T20:44:59.302Z,100764.80
2023-05-20T20:47:35.964Z,100759.40
2023-05-20T20:50:13.622Z,100759.60
2023-05-20T20:52:49.088Z,100751.80
2023-05-20T20:55:27.161Z,100754.80
2023-05-20T20:58:07.993Z,100756.20
2023-05-20T21:00:50.027Z,100756.40
2023-05-20T21:03:27.330Z,100754.60
2023-05-20T21:06:02.056Z,100747.20
2023-05-20T21:08:35.924Z,100748.20
2023-05-20T21:11:09.972Z,100745.80
2023-05-20T21:13:44.435Z,100746.80
2023-05-20T21:16:19.675Z,100747.80
2023-05-20T21:19:05.894Z,100745.40
2023-05-20T21:26:05.762Z,100735.80
2023-05-20T21:29:17.220Z,100736.40
2023-05-20T21:32:06.475Z,100734.20
2023-05-20T21:34:40.789Z,100731.20
2023-05-20T21:37:56.052Z,100727.40
2023-05-20T21:40:51.717Z,100733.20
2023-05-20T21:43:45.863Z,100739.00
2023-05-20T21:46:32.093Z,100737.80
2023-05-20T21:49:27.803Z,100738.60
2023-05-20T21:52:03.685Z,100743.40
2023-05-20T21:54:38.731Z,100745.00
2023-05-20T21:57:29.532Z,100743.20
2023-05-20T22:00:19.147Z,100741.40
2023-05-20T22:02:56.064Z,100740.40
2023-05-20T22:05:29.697Z,100734.80
2023-05-20T22:08:03.431Z,100735.00
2023-05-20T22:10:39.148Z,100730.40
2023-05-20T22:20:13.901Z,100727.20
2023-05-20T22:22:45.517Z,100725.60
2023-05-20T22:25:15.325Z,100721.60
2023-05-20T22:27:45.512Z,100729.60
2023-05-20T22:30:15.549Z,100728.60
2023-05-20T22:32:46.841Z,100727.60
2023-05-20T22:35:17.064Z,100723.60
2023-05-20T22:37:47.732Z,100718.40
2023-05-20T22:40:19.116Z,100727.00
2023-05-20T22:42:48.724Z,100727.00
2023-05-20T22:45:19.164Z,100725.60
2023-05-20T22:47:49.060Z,100730.60
2023-05-20T22:50:19.842Z,100730.40
2023-05-20T22:52:51.656Z,100731.80
2023-05-20T22:58:39.247Z,100724.20
2023-05-20T23:01:10.791Z,100727.60
2023-05-20T23:03:43.679Z,100722.80
2023-05-20T23:06:14.984Z,100723.00
2023-05-20T23:08:44.552Z,100715.00
2023-05-20T23:11:14.362Z,100715.00
2023-05-20T23:13:44.186Z,100708.60
2023-05-20T23:16:14.413Z,100709.20
2023-05-20T23:18:44.087Z,100709.60
2023-05-20T23:21:15.530Z,100702.20
2023-05-20T23:23:45.039Z,100702.20
2023-05-20T23:26:14.741Z,100694.80
2023-05-20T23:28:44.513Z,100693.60
2023-05-20T23:31:14.416Z,100695.20
2023-05-20T23:33:44.259Z,100696.80
2023-05-20T23:36:14.141Z,100695.40
2023-05-20T23:38:44.761Z,100694.00
2023-05-20T23:41:14.487Z,100698.00
2023-05-20T23:43:44.539Z,100697.20
2023-05-20T23:46:14.503Z,100694.00
2023-05-20T23:48:44.960Z,100691.60
2023-05-20T23:51:15.786Z,100691.80
2023-05-20T23:53:45.657Z,100692.40
2023-05-20T23:56:15.599Z,100689.40
2023-05-20T23:58:45.580Z,100688.80
